Time;durP1;ratioP1;P1;durP2;ratioP2;P2;SDS_P1;SDS_P2;PMS_P1;PMS_P2;Temp;Humidity;BMP_temperature;BMP_pressure;BME280_temperature;BME280_humidity;BME280_pressure;Samples;Min_cycle;Max_cycle;Signal;HPM_P1;HPM_P2
2021/01/08 00:00:09;;;;;;;28.08;20.67;;;7.60;92.10;;;;;;5033774;28;20037;-52
2021/01/08 00:02:35;;;;;;;28.02;22.40;;;7.80;91.90;;;;;;5017278;28;20045;-52
2021/01/08 00:05:01;;;;;;;37.55;25.33;;;7.80;91.80;;;;;;5016408;28;20033;-52
2021/01/08 00:07:27;;;;;;;39.92;27.45;;;7.40;92.60;;;;;;5017095;28;20044;-52
2021/01/08 00:09:52;;;;;;;42.05;27.70;;;7.30;93.10;;;;;;5033782;28;20358;-52
2021/01/08 00:12:18;;;;;;;36.25;26.73;;;7.20;93.20;;;;;;5033845;28;20107;-52
2021/01/08 00:14:44;;;;;;;32.63;24.95;;;7.10;93.20;;;;;;5033487;28;20072;-52
2021/01/08 00:17:10;;;;;;;35.20;26.33;;;7.20;93.50;;;;;;5016852;28;20037;-52
2021/01/08 00:19:35;;;;;;;35.95;26.23;;;7.50;92.90;;;;;;5033612;28;20040;-52
2021/01/08 00:22:01;;;;;;;34.35;24.15;;;7.60;92.70;;;;;;5000573;28;20045;-51
2021/01/08 00:24:27;;;;;;;33.60;24.75;;;7.70;92.20;;;;;;5033390;28;20116;-51
2021/01/08 00:26:54;;;;;;;33.67;24.65;;;7.80;92.10;;;;;;5082454;28;20445;-51
2021/01/08 00:29:21;;;;;;;34.70;25.83;;;7.90;91.90;;;;;;5095789;28;20031;-52
2021/01/08 00:31:48;;;;;;;34.47;24.73;;;8.00;91.60;;;;;;5095412;28;20499;-51
2021/01/08 00:34:18;;;;;;;34.35;25.35;;;8.20;91.30;;;;;;5096071;28;20028;-53
2021/01/08 00:36:51;;;;;;;30.17;22.05;;;8.30;91.10;;;;;;5094548;28;20028;-53
2021/01/08 00:39:18;;;;;;;34.00;24.40;;;8.40;90.90;;;;;;5059799;28;20115;-52
2021/01/08 00:41:44;;;;;;;36.42;27.98;;;8.40;90.80;;;;;;5095598;28;20078;-52
2021/01/08 00:44:09;;;;;;;37.53;28.48;;;8.50;90.60;;;;;;5095584;28;20541;-52
2021/01/08 00:46:36;;;;;;;41.92;31.90;;;8.40;90.60;;;;;;5059712;28;20066;-51
2021/01/08 00:49:04;;;;;;;41.58;32.67;;;8.50;90.50;;;;;;5095118;28;20457;-52
2021/01/08 00:51:29;;;;;;;37.70;29.17;;;8.50;90.50;;;;;;5095297;28;20035;-51
2021/01/08 00:53:56;;;;;;;33.97;27.75;;;8.50;90.70;;;;;;5095233;28;20016;-51
2021/01/08 00:56:22;;;;;;;36.67;29.45;;;8.50;90.30;;;;;;5095254;28;20020;-52
2021/01/08 00:58:48;;;;;;;43.38;32.67;;;8.60;90.30;;;;;;5095121;28;20047;-52
2021/01/08 01:01:14;;;;;;;61.55;44.17;;;8.60;90.30;;;;;;5042628;28;20129;-51
2021/01/08 01:03:40;;;;;;;59.15;43.33;;;8.60;90.00;;;;;;5095012;28;20471;-51
2021/01/08 01:06:06;;;;;;;51.42;37.03;;;8.70;90.00;;;;;;5094826;28;20081;-52
2021/01/08 01:08:32;;;;;;;45.72;32.75;;;8.50;90.10;;;;;;5094844;28;20030;-53
2021/01/08 01:10:58;;;;;;;39.63;29.60;;;8.50;90.20;;;;;;5095054;28;20032;-52
2021/01/08 01:13:24;;;;;;;43.25;32.13;;;8.50;90.10;;;;;;5095087;28;20035;-51
2021/01/08 01:15:50;;;;;;;46.78;33.17;;;8.50;89.90;;;;;;5095100;28;20023;-51
2021/01/08 01:18:16;;;;;;;44.67;35.05;;;8.50;90.10;;;;;;5009704;28;20036;-53
2021/01/08 01:20:42;;;;;;;47.55;35.75;;;8.40;90.10;;;;;;5094635;28;20407;-54
2021/01/08 01:23:07;;;;;;;50.78;38.15;;;8.30;90.30;;;;;;5058915;28;20036;-53
2021/01/08 01:25:33;;;;;;;51.28;37.55;;;8.30;90.30;;;;;;5094661;28;20028;-52
2021/01/08 01:27:59;;;;;;;51.65;36.28;;;8.20;90.40;;;;;;5094509;28;20388;-52
2021/01/08 01:30:25;;;;;;;50.55;37.65;;;8.40;90.40;;;;;;5094581;28;20075;-51
2021/01/08 01:32:51;;;;;;;46.20;34.90;;;8.30;90.50;;;;;;5094494;28;20024;-53
2021/01/08 01:35:17;;;;;;;43.45;33.45;;;8.20;90.40;;;;;;5094567;28;20028;-53
2021/01/08 01:37:42;;;;;;;43.90;31.38;;;8.20;90.60;;;;;;5094203;28;20032;-51
2021/01/08 01:40:08;;;;;;;47.20;34.22;;;8.00;90.70;;;;;;5094423;28;20452;-51
2021/01/08 01:42:34;;;;;;;42.67;32.38;;;8.00;91.00;;;;;;5094310;28;20036;-52
2021/01/08 01:45:00;;;;;;;45.63;32.78;;;7.90;91.20;;;;;;5094116;28;20035;-51
2021/01/08 01:47:27;;;;;;;48.10;34.22;;;7.70;91.60;;;;;;5094236;28;20024;-51
2021/01/08 01:49:53;;;;;;;46.70;33.28;;;7.90;91.40;;;;;;5093860;28;20433;-51
2021/01/08 01:52:20;;;;;;;39.38;30.45;;;8.00;91.60;;;;;;5093965;28;20057;-53
2021/01/08 01:54:46;;;;;;;42.78;31.38;;;7.90;91.20;;;;;;5094176;28;20062;-51
2021/01/08 01:57:12;;;;;;;40.65;30.33;;;7.90;91.50;;;;;;5093896;28;20028;-52
2021/01/08 01:59:37;;;;;;;42.25;29.75;;;8.10;91.20;;;;;;5093682;28;20034;-52
2021/01/08 02:02:18;;;;;;;40.45;30.20;;;7.90;91.20;;;;;;5093895;28;20032;-51
2021/01/08 02:04:45;;;;;;;40.55;30.30;;;7.90;91.30;;;;;;5094059;28;20028;-52
2021/01/08 02:07:11;;;;;;;45.00;33.28;;;7.90;91.40;;;;;;5093628;28;20024;-52
2021/01/08 02:09:37;;;;;;;48.33;34.60;;;7.90;91.40;;;;;;5093894;28;20051;-52
2021/01/08 02:12:03;;;;;;;45.25;32.67;;;;;;;;;;5093815;28;20069;-51
2021/01/08 02:14:29;;;;;;;46.85;34.17;;;8.00;99.90;;;;;;5041525;28;20040;-53
2021/01/08 02:16:58;;;;;;;46.22;36.03;;;8.20;99.90;;;;;;5093557;28;20016;-51
2021/01/08 02:19:51;;;;;;;47.72;36.45;;;8.10;91.10;;;;;;5093674;28;20480;-52
2021/01/08 02:22:26;;;;;;;49.53;37.25;;;8.20;90.90;;;;;;5089622;28;20067;-52
2021/01/08 02:25:11;;;;;;;50.78;38.47;;;8.20;90.80;;;;;;5093651;28;20099;-52
2021/01/08 02:27:39;;;;;;;51.58;38.95;;;8.30;90.70;;;;;;5093359;28;20103;-52
2021/01/08 02:30:06;;;;;;;50.70;37.85;;;8.20;90.90;;;;;;5093195;28;20076;-51
2021/01/08 02:32:33;;;;;;;51.92;38.90;;;8.20;90.90;;;;;;5041898;28;20032;-51
2021/01/08 02:35:01;;;;;;;51.70;39.58;;;8.10;91.20;;;;;;5093463;28;20027;-51
2021/01/08 02:37:32;;;;;;;53.33;37.78;;;7.70;91.80;;;;;;5093365;28;20024;-52
2021/01/08 02:39:57;;;;;;;63.83;41.05;;;7.50;92.60;;;;;;5093454;28;20081;-52
2021/01/08 02:42:24;;;;;;;58.35;40.22;;;7.40;92.80;;;;;;5093482;28;20032;-51
2021/01/08 02:44:49;;;;;;;68.45;42.45;;;7.50;92.90;;;;;;5093547;28;20419;-52
2021/01/08 02:47:19;;;;;;;62.85;41.90;;;7.60;92.80;;;;;;5093191;28;20024;-51
2021/01/08 02:49:45;;;;;;;55.05;38.85;;;7.50;92.60;;;;;;5093407;28;20036;-52
2021/01/08 02:52:11;;;;;;;53.35;36.97;;;7.60;92.70;;;;;;5093240;28;20611;-53
2021/01/08 02:54:37;;;;;;;49.50;37.05;;;7.60;92.40;;;;;;5093554;28;20046;-51
2021/01/08 02:57:05;;;;;;;46.30;35.08;;;7.80;92.10;;;;;;5093484;28;20444;-53
2021/01/08 02:59:32;;;;;;;51.88;36.78;;;8.00;91.90;;;;;;5041796;28;20040;-53
2021/01/08 03:01:58;;;;;;;47.00;34.95;;;8.20;91.60;;;;;;5093173;28;20032;-52
2021/01/08 03:04:24;;;;;;;47.88;32.90;;;8.20;91.30;;;;;;5093543;28;20027;-52
2021/01/08 03:06:52;;;;;;;47.33;34.38;;;8.40;96.90;;;;;;5093180;28;20066;-52
2021/01/08 03:09:18;;;;;;;42.78;30.20;;;8.30;91.30;;;;;;5093247;28;20024;-52
2021/01/08 03:12:14;;;;;;;40.13;28.90;;;8.40;90.80;;;;;;5057709;28;20032;-52
2021/01/08 03:14:44;;;;;;;39.75;28.40;;;8.40;90.80;;;;;;5091268;28;20110;-51
2021/01/08 03:17:11;;;;;;;37.35;26.13;;;8.10;91.10;;;;;;5093031;28;20157;-51
2021/01/08 03:19:37;;;;;;;39.17;25.58;;;7.90;91.80;;;;;;5041024;28;20042;-51
2021/01/08 03:22:03;;;;;;;32.65;25.23;;;7.50;92.40;;;;;;5092793;28;20122;-52
2021/01/08 03:24:29;;;;;;;38.33;26.83;;;7.40;92.90;;;;;;5057435;28;20111;-52
2021/01/08 03:26:54;;;;;;;34.25;25.08;;;7.30;93.40;;;;;;5057675;28;20136;-53
2021/01/08 03:29:20;;;;;;;33.75;24.67;;;7.30;93.40;;;;;;5092850;28;20089;-51
2021/01/08 03:31:46;;;;;;;33.78;23.77;;;7.20;93.60;;;;;;5057361;28;20048;-52
2021/01/08 03:34:12;;;;;;;30.80;22.55;;;7.20;93.70;;;;;;5092989;28;20035;-52
2021/01/08 03:36:37;;;;;;;27.33;21.38;;;7.10;94.10;;;;;;5092760;28;20024;-52
2021/01/08 03:39:04;;;;;;;27.85;21.80;;;7.00;94.20;;;;;;5074518;28;20035;-52
2021/01/08 03:41:29;;;;;;;28.08;22.20;;;7.00;94.40;;;;;;5033268;28;20045;-51
2021/01/08 03:43:55;;;;;;;27.45;21.77;;;6.90;95.00;;;;;;5034229;28;21228;-52
2021/01/08 03:46:21;;;;;;;26.85;21.20;;;6.90;94.90;;;;;;5034139;28;20551;-51
2021/01/08 03:48:46;;;;;;;28.90;22.35;;;7.00;94.60;;;;;;5033891;28;20074;-52
2021/01/08 03:51:12;;;;;;;26.90;20.83;;;7.10;94.70;;;;;;5016978;28;20120;-53
2021/01/08 03:53:38;;;;;;;28.92;21.40;;;7.10;94.30;;;;;;5017530;28;20084;-51
2021/01/08 03:56:04;;;;;;;28.73;21.67;;;7.10;94.60;;;;;;5034068;28;20083;-51
2021/01/08 03:58:30;;;;;;;31.33;22.65;;;7.10;94.70;;;;;;5033675;28;20033;-51
2021/01/08 04:00:55;;;;;;;31.10;21.58;;;7.20;94.60;;;;;;5033874;28;20030;-52
2021/01/08 04:03:21;;;;;;;26.70;21.38;;;7.10;94.70;;;;;;5034007;28;20041;-51
2021/01/08 04:05:47;;;;;;;29.70;22.17;;;7.10;94.60;;;;;;5033750;28;20026;-52
2021/01/08 04:08:13;;;;;;;27.88;22.13;;;7.20;94.60;;;;;;5033933;28;20071;-51
2021/01/08 04:10:38;;;;;;;28.35;21.50;;;7.20;94.50;;;;;;5033776;28;20041;-51
2021/01/08 04:13:04;;;;;;;28.08;21.52;;;7.30;94.50;;;;;;5050190;28;20042;-51
2021/01/08 04:15:30;;;;;;;28.45;22.40;;;7.40;94.20;;;;;;5096020;28;20020;-51
2021/01/08 04:17:56;;;;;;;25.70;19.65;;;;;;;;;;5095856;28;20020;-52
2021/01/08 04:20:22;;;;;;;26.63;21.33;;;7.60;96.20;;;;;;5043442;28;20109;-53
2021/01/08 04:22:47;;;;;;;28.25;21.23;;;7.40;94.10;;;;;;5060521;28;20071;-52
2021/01/08 04:25:13;;;;;;;30.65;22.60;;;7.60;93.90;;;;;;5095902;28;20077;-51
2021/01/08 04:27:39;;;;;;;35.47;25.88;;;7.50;94.10;;;;;;5096035;28;20035;-52
2021/01/08 04:30:06;;;;;;;29.77;24.15;;;7.30;94.40;;;;;;5095819;28;20056;-52
2021/01/08 04:32:31;;;;;;;27.88;22.42;;;7.40;97.00;;;;;;5095657;28;20537;-52
2021/01/08 04:34:57;;;;;;;30.45;22.90;;;7.40;97.00;;;;;;5095628;28;20032;-51
2021/01/08 04:37:23;;;;;;;28.23;23.75;;;7.40;97.10;;;;;;5095848;28;20031;-51
2021/01/08 04:39:49;;;;;;;30.00;23.00;;;7.30;97.40;;;;;;5095632;28;20062;-53
2021/01/08 04:42:15;;;;;;;26.08;20.42;;;7.30;95.10;;;;;;5095385;28;20034;-53
2021/01/08 04:44:42;;;;;;;26.98;21.10;;;7.20;95.10;;;;;;5095604;28;20024;-51
2021/01/08 04:47:11;;;;;;;28.38;21.70;;;7.30;96.30;;;;;;5095581;28;20020;-51
2021/01/08 04:49:38;;;;;;;28.50;22.30;;;7.30;95.20;;;;;;5095168;28;20055;-53
2021/01/08 04:52:06;;;;;;;28.20;22.98;;;7.50;95.20;;;;;;5095189;28;20063;-51
2021/01/08 04:54:32;;;;;;;30.75;23.10;;;7.20;95.40;;;;;;5095559;28;20062;-52
2021/01/08 04:56:59;;;;;;;27.30;23.38;;;7.30;97.80;;;;;;5095485;28;20032;-52
2021/01/08 04:59:25;;;;;;;28.42;22.83;;;7.30;97.40;;;;;;5095172;28;20047;-51
2021/01/08 05:01:52;;;;;;;29.08;23.77;;;7.30;97.30;;;;;;5042970;28;20047;-51
2021/01/08 05:04:17;;;;;;;28.65;22.15;;;7.40;97.60;;;;;;5095027;28;20024;-52
2021/01/08 05:06:44;;;;;;;27.90;22.67;;;7.30;97.70;;;;;;5094973;28;20486;-51
2021/01/08 05:09:10;;;;;;;28.90;22.50;;;7.00;96.40;;;;;;5095385;28;20028;-52
2021/01/08 05:11:36;;;;;;;31.15;23.05;;;7.00;96.50;;;;;;5059564;28;20040;-52
2021/01/08 05:14:04;;;;;;;28.10;21.73;;;6.90;96.70;;;;;;5076249;28;20131;-52
2021/01/08 05:16:31;;;;;;;26.13;20.02;;;6.90;96.80;;;;;;5095014;28;20032;-52
2021/01/08 05:18:59;;;;;;;28.65;22.25;;;6.80;97.00;;;;;;5026148;28;20118;-52
2021/01/08 05:21:31;;;;;;;28.25;21.35;;;6.90;97.40;;;;;;5094648;28;20106;-52
2021/01/08 05:23:59;;;;;;;27.23;20.13;;;7.00;97.80;;;;;;5089302;28;20039;-53
2021/01/08 05:26:25;;;;;;;28.80;19.77;;;7.00;97.90;;;;;;5084929;28;20055;-52
2021/01/08 05:28:53;;;;;;;25.65;18.23;;;6.90;98.70;;;;;;5083275;28;20099;-51
2021/01/08 05:31:21;;;;;;;22.63;17.92;;;7.00;98.70;;;;;;5083003;28;20040;-52
2021/01/08 05:33:51;;;;;;;25.27;19.30;;;7.00;98.50;;;;;;5085037;28;20024;-53
2021/01/08 05:36:18;;;;;;;24.83;18.92;;;6.70;97.40;;;;;;5046847;28;20036;-52
2021/01/08 05:38:52;;;;;;;26.35;18.63;;;6.80;97.60;;;;;;5084447;28;20470;-52
2021/01/08 05:41:19;;;;;;;22.80;18.65;;;6.70;97.40;;;;;;5084444;28;20028;-52
2021/01/08 05:43:46;;;;;;;20.98;17.60;;;7.00;98.70;;;;;;5083323;28;20116;-52
2021/01/08 05:46:13;;;;;;;25.98;19.38;;;6.90;96.80;;;;;;5075240;28;20086;-52
2021/01/08 05:48:50;;;;;;;25.58;18.33;;;7.10;96.80;;;;;;5073798;28;20032;-51
2021/01/08 05:51:17;;;;;;;20.90;15.75;;;7.10;96.30;;;;;;5073936;28;20021;-51
2021/01/08 05:53:47;;;;;;;17.55;14.90;;;7.20;97.50;;;;;;5073915;28;20039;-52
2021/01/08 05:56:17;;;;;;;18.73;14.48;;;7.20;97.60;;;;;;5072588;28;20036;-47
2021/01/08 05:58:44;;;;;;;14.73;12.40;;;7.30;97.60;;;;;;5072445;28;20071;-50
2021/01/08 06:01:10;;;;;;;14.40;11.48;;;7.30;97.20;;;;;;5072629;28;20021;-52
2021/01/08 06:03:37;;;;;;;13.40;10.00;;;7.20;95.60;;;;;;5071942;28;20025;-52
2021/01/08 06:06:04;;;;;;;14.13;10.73;;;7.50;96.40;;;;;;5072536;28;20025;-50
2021/01/08 06:08:47;;;;;;;17.35;14.18;;;7.50;96.20;;;;;;5077452;28;20096;-50
2021/01/08 06:11:18;;;;;;;14.32;11.77;;;7.30;95.20;;;;;;5075067;28;20020;-51
2021/01/08 06:13:45;;;;;;;18.27;13.88;;;7.30;94.90;;;;;;5038237;28;20044;-51
2021/01/08 06:16:18;;;;;;;17.88;14.65;;;7.30;95.20;;;;;;5072538;28;20052;-50
2021/01/08 06:18:46;;;;;;;15.25;11.73;;;7.30;95.10;;;;;;5071822;28;20078;-52
2021/01/08 06:21:11;;;;;;;15.18;11.60;;;7.20;95.10;;;;;;5072237;28;20032;-46
2021/01/08 06:23:43;;;;;;;14.00;10.68;;;7.40;94.90;;;;;;5072370;28;20116;-49
2021/01/08 06:26:19;;;;;;;14.70;10.73;;;7.30;95.10;;;;;;5074560;28;20028;-49
2021/01/08 06:28:47;;;;;;;15.20;11.20;;;7.20;95.40;;;;;;5091852;28;20114;-50
2021/01/08 06:31:21;;;;;;;12.52;9.50;;;7.20;95.20;;;;;;5092343;28;20044;-50
2021/01/08 06:33:59;;;;;;;13.25;9.98;;;7.20;95.10;;;;;;5027164;28;20766;-51
2021/01/08 06:36:26;;;;;;;13.40;9.63;;;7.40;95.10;;;;;;5072166;28;20051;-51
2021/01/08 06:38:54;;;;;;;13.80;10.80;;;7.30;94.80;;;;;;5052662;28;20044;-51
2021/01/08 06:41:21;;;;;;;14.27;12.77;;;7.10;95.40;;;;;;5072044;28;20074;-50
2021/01/08 06:44:00;;;;;;;14.38;11.40;;;7.20;95.00;;;;;;5072079;28;20043;-50
2021/01/08 06:46:39;;;;;;;13.38;11.13;;;7.10;95.40;;;;;;5020230;28;20039;-51
2021/01/08 06:49:12;;;;;;;13.73;10.15;;;7.30;97.10;;;;;;5072022;28;20111;-50
2021/01/08 06:51:43;;;;;;;19.30;13.85;;;7.20;96.80;;;;;;5072168;28;20017;-50
2021/01/08 06:54:10;;;;;;;14.45;12.18;;;7.20;97.00;;;;;;5072084;28;20121;-51
2021/01/08 06:56:38;;;;;;;13.77;10.63;;;7.20;97.10;;;;;;5072145;28;20433;-50
2021/01/08 06:59:16;;;;;;;14.38;11.52;;;7.20;97.10;;;;;;5036507;28;20037;-50
2021/01/08 07:01:59;;;;;;;16.58;12.43;;;7.30;97.20;;;;;;5071694;28;20028;-50
2021/01/08 07:04:25;;;;;;;17.10;12.20;;;7.30;96.60;;;;;;5072008;28;20057;-50
2021/01/08 07:06:59;;;;;;;14.38;10.85;;;7.30;96.80;;;;;;5071828;28;20033;-50
2021/01/08 07:09:36;;;;;;;15.82;11.75;;;6.90;97.60;;;;;;5071876;28;20613;-50
2021/01/08 07:12:07;;;;;;;13.77;10.82;;;7.00;99.90;;;;;;5020292;28;20035;-50
2021/01/08 07:14:35;;;;;;;12.98;9.23;;;7.10;99.90;;;;;;5007946;28;20472;-50
2021/01/08 07:17:06;;;;;;;12.88;10.07;;;7.00;99.90;;;;;;5075382;28;20028;-47
2021/01/08 07:19:32;;;;;;;10.15;8.13;;;7.10;99.80;;;;;;5075605;28;20054;-51
2021/01/08 07:22:03;;;;;;;11.70;8.95;;;7.00;99.40;;;;;;5039795;28;20048;-49
2021/01/08 07:24:33;;;;;;;16.35;11.75;;;7.10;99.60;;;;;;5075577;28;20023;-53
2021/01/08 07:27:14;;;;;;;19.83;14.45;;;7.20;99.00;;;;;;5075273;28;20033;-55
2021/01/08 07:29:41;;;;;;;17.55;12.43;;;7.30;98.90;;;;;;5075305;28;20103;-52
2021/01/08 07:32:07;;;;;;;17.20;11.38;;;7.30;99.70;;;;;;5076295;28;20618;-55
2021/01/08 07:34:34;;;;;;;17.27;12.50;;;7.10;99.40;;;;;;5085417;28;20035;-54
2021/01/08 07:37:00;;;;;;;22.88;12.90;;;7.10;99.20;;;;;;5083717;28;20538;-54
2021/01/08 07:39:42;;;;;;;20.48;13.82;;;7.20;98.90;;;;;;5088344;28;20037;-54
2021/01/08 07:42:32;;;;;;;23.65;13.55;;;7.50;97.80;;;;;;5026518;28;20041;-55
2021/01/08 07:44:59;;;;;;;14.13;10.00;;;7.40;97.80;;;;;;5023297;28;20030;-54
2021/01/08 07:47:29;;;;;;;20.20;12.23;;;7.30;97.80;;;;;;5004978;28;20096;-51
2021/01/08 07:50:14;;;;;;;17.65;12.10;;;7.40;95.00;;;;;;5007428;28;20469;-56
2021/01/08 07:52:41;;;;;;;18.02;11.02;;;7.40;95.10;;;;;;5032606;28;20045;-55
2021/01/08 07:55:08;;;;;;;15.68;10.52;;;7.50;94.00;;;;;;5015980;28;20472;-53
2021/01/08 07:58:03;;;;;;;17.75;12.18;;;7.60;94.10;;;;;;5032529;28;20084;-53
2021/01/08 08:00:31;;;;;;;18.88;13.85;;;7.50;94.30;;;;;;5032534;28;20033;-54
2021/01/08 08:02:58;;;;;;;20.85;13.75;;;7.50;94.30;;;;;;5032348;28;20059;-53
2021/01/08 08:05:25;;;;;;;13.57;10.43;;;7.50;94.00;;;;;;5032105;28;20052;-54
2021/01/08 08:08:01;;;;;;;12.05;9.57;;;7.50;94.50;;;;;;5032335;28;20456;-53
2021/01/08 08:10:29;;;;;;;13.60;10.65;;;7.40;94.70;;;;;;4982872;28;20049;-53
2021/01/08 08:12:55;;;;;;;9.73;8.05;;;7.40;94.80;;;;;;5058197;28;20494;-55
2021/01/08 08:15:22;;;;;;;11.57;9.63;;;7.40;96.10;;;;;;5094870;28;20032;-53
2021/01/08 08:17:48;;;;;;;10.68;7.75;;;7.60;96.30;;;;;;5090063;28;20028;-54
2021/01/08 08:20:22;;;;;;;16.88;10.18;;;7.40;96.10;;;;;;5086817;28;20036;-55
2021/01/08 08:22:49;;;;;;;9.75;6.70;;;7.70;96.40;;;;;;5079135;28;20036;-52
2021/01/08 08:25:31;;;;;;;9.35;7.55;;;7.40;94.30;;;;;;5075199;28;20028;-60
2021/01/08 08:28:00;;;;;;;10.10;6.70;;;7.50;94.30;;;;;;5080743;28;20029;-55
2021/01/08 08:30:28;;;;;;;8.55;7.10;;;7.40;94.80;;;;;;5073845;28;20044;-51
2021/01/08 08:32:55;;;;;;;11.93;8.68;;;7.40;96.10;;;;;;5084220;28;20031;-51
2021/01/08 08:35:21;;;;;;;11.85;9.45;;;7.50;95.60;;;;;;5024653;28;20097;-58
2021/01/08 08:37:49;;;;;;;13.45;10.02;;;7.70;94.80;;;;;;5074337;28;20052;-52
2021/01/08 08:40:15;;;;;;;13.05;9.57;;;7.70;94.30;;;;;;5074002;28;20044;-52
2021/01/08 08:42:41;;;;;;;15.80;11.73;;;7.40;93.80;;;;;;5021813;28;20045;-54
2021/01/08 08:45:18;;;;;;;15.38;12.95;;;7.50;94.80;;;;;;4971840;28;20052;-51
2021/01/08 08:47:48;;;;;;;20.42;14.63;;;7.50;93.70;;;;;;5023124;28;20632;-52
2021/01/08 08:50:16;;;;;;;31.60;19.05;;;7.30;94.90;;;;;;4992858;28;20042;-49
2021/01/08 08:52:42;;;;;;;26.80;20.30;;;7.10;96.00;;;;;;4973667;28;20046;-51
2021/01/08 08:55:08;;;;;;;18.17;13.65;;;7.30;96.30;;;;;;5011857;28;20109;-55
2021/01/08 08:57:34;;;;;;;12.52;10.82;;;7.20;95.90;;;;;;4995155;28;20154;-51
2021/01/08 09:00:00;;;;;;;13.20;11.40;;;7.00;98.70;;;;;;5011667;28;20535;-48
2021/01/08 09:02:29;;;;;;;11.02;8.93;;;6.90;95.50;;;;;;5011314;28;20133;-53
2021/01/08 09:04:59;;;;;;;15.43;10.20;;;7.00;95.10;;;;;;5011463;28;20037;-53
2021/01/08 09:07:34;;;;;;;12.27;8.65;;;7.00;94.60;;;;;;4994943;28;20116;-51
2021/01/08 09:10:07;;;;;;;8.30;6.35;;;7.30;99.10;;;;;;5027263;28;20045;-49
2021/01/08 09:12:47;;;;;;;11.68;7.10;;;7.30;98.90;;;;;;5032624;28;20033;-56
2021/01/08 09:15:26;;;;;;;10.25;7.40;;;7.30;98.80;;;;;;5093673;28;20028;-52
2021/01/08 09:18:02;;;;;;;10.77;8.05;;;7.60;96.50;;;;;;5093534;28;20387;-51
2021/01/08 09:20:29;;;;;;;14.15;9.90;;;7.50;93.60;;;;;;5093575;28;20148;-52
2021/01/08 09:22:56;;;;;;;9.10;7.47;;;7.50;93.10;;;;;;5093440;28;20101;-50
2021/01/08 09:25:23;;;;;;;8.73;5.70;;;7.40;93.30;;;;;;5093416;28;20032;-54
2021/01/08 09:27:49;;;;;;;8.48;6.68;;;7.20;93.80;;;;;;5040685;28;20044;-55
2021/01/08 09:30:15;;;;;;;7.65;4.75;;;7.40;95.70;;;;;;5093153;28;20569;-51
2021/01/08 09:32:41;;;;;;;6.68;4.00;;;7.40;95.40;;;;;;5057495;28;20072;-53
2021/01/08 09:35:09;;;;;;;11.10;5.03;;;7.40;95.70;;;;;;5057464;28;20438;-51
2021/01/08 09:37:49;;;;;;;18.50;9.43;;;7.20;94.40;;;;;;5092248;28;20054;-51
2021/01/08 09:40:18;;;;;;;50.28;20.27;;;7.20;94.40;;;;;;5093279;28;20435;-53
2021/01/08 09:42:45;;;;;;;32.00;16.23;;;7.30;93.90;;;;;;5092898;28;20484;-51
2021/01/08 09:45:20;;;;;;;12.02;7.93;;;7.20;94.20;;;;;;5093128;28;20153;-54
2021/01/08 09:47:46;;;;;;;9.00;5.95;;;7.30;93.80;;;;;;5092604;28;20028;-47
2021/01/08 09:50:21;;;;;;;9.73;6.15;;;7.10;94.00;;;;;;5057207;28;20040;-52
2021/01/08 09:52:48;;;;;;;14.15;9.60;;;7.00;94.00;;;;;;5092912;28;20040;-48
2021/01/08 09:55:30;;;;;;;12.95;8.52;;;7.10;96.70;;;;;;5040708;28;20674;-53
2021/01/08 09:58:00;;;;;;;11.32;7.60;;;7.00;99.90;;;;;;5092821;28;20495;-57
2021/01/08 10:00:35;;;;;;;10.70;7.55;;;6.80;94.40;;;;;;5093392;28;20380;-52
2021/01/08 10:03:03;;;;;;;8.23;5.65;;;6.90;94.10;;;;;;5093757;28;20130;-48
2021/01/08 10:05:34;;;;;;;10.95;6.72;;;7.00;93.90;;;;;;5040316;28;20040;-49
2021/01/08 10:08:01;;;;;;;8.88;7.25;;;6.90;94.00;;;;;;5094054;28;20028;-54
2021/01/08 10:10:27;;;;;;;12.60;8.50;;;6.90;94.00;;;;;;5094348;28;20031;-55
2021/01/08 10:12:54;;;;;;;13.52;7.35;;;;;;;;;;5093816;28;20024;-53
2021/01/08 10:15:36;;;;;;;20.20;12.00;;;6.90;99.90;;;;;;5093983;28;20028;-53
2021/01/08 10:18:17;;;;;;;7.00;5.18;;;6.90;94.80;;;;;;5093423;28;20065;-53
2021/01/08 10:21:03;;;;;;;13.30;8.38;;;6.70;94.40;;;;;;5058085;28;20047;-54
2021/01/08 10:23:29;;;;;;;8.15;5.93;;;6.90;94.40;;;;;;5076094;28;20056;-52
2021/01/08 10:26:11;;;;;;;10.38;7.43;;;6.90;94.60;;;;;;5058144;28;20039;-52
2021/01/08 10:28:53;;;;;;;;;;;7.00;94.40;;;;;;5094496;28;20032;-53
2021/01/08 10:31:20;;;;;;;9.27;7.88;;;7.20;94.50;;;;;;5093327;28;19998;-53
2021/01/08 10:33:46;;;;;;;10.00;7.40;;;7.10;93.90;;;;;;5093672;28;20028;-53
2021/01/08 10:36:12;;;;;;;11.02;9.07;;;7.50;97.50;;;;;;5093516;28;20482;-52
2021/01/08 10:38:38;;;;;;;13.60;10.93;;;7.20;97.30;;;;;;5057983;28;20043;-53
2021/01/08 10:41:04;;;;;;;14.82;11.27;;;7.40;97.70;;;;;;5058026;28;20044;-54
2021/01/08 10:43:32;;;;;;;12.32;9.38;;;7.60;95.50;;;;;;5058158;28;20518;-54
2021/01/08 10:45:59;;;;;;;17.20;12.07;;;7.50;98.60;;;;;;5093794;28;20098;-54
2021/01/08 10:48:25;;;;;;;14.02;10.55;;;;;;;;;;5075532;28;20383;-52
2021/01/08 10:50:51;;;;;;;13.57;10.27;;;;;;;;;;5097238;28;20035;-53
2021/01/08 10:53:17;;;;;;;19.30;12.45;;;7.50;92.70;;;;;;5096962;28;20395;-49
2021/01/08 10:55:46;;;;;;;18.83;13.60;;;7.20;92.80;;;;;;5028523;28;20063;-54
2021/01/08 10:58:13;;;;;;;10.70;7.85;;;7.10;93.20;;;;;;5045480;28;20119;-50
2021/01/08 11:00:39;;;;;;;12.77;9.63;;;7.10;93.60;;;;;;5061881;28;20062;-51
2021/01/08 11:03:05;;;;;;;8.30;6.88;;;6.90;94.10;;;;;;5097326;28;20040;-51
2021/01/08 11:05:30;;;;;;;7.72;6.70;;;6.90;93.70;;;;;;5097200;28;20483;-60
2021/01/08 11:07:56;;;;;;;13.57;9.48;;;7.00;93.60;;;;;;5097309;28;20039;-52
2021/01/08 11:10:22;;;;;;;14.40;12.40;;;6.90;94.10;;;;;;5061743;28;20067;-50
2021/01/08 11:12:47;;;;;;;12.43;10.25;;;7.00;94.50;;;;;;5097128;28;20032;-52
2021/01/08 11:15:13;;;;;;;9.20;5.68;;;6.90;94.20;;;;;;5097041;28;20088;-51
2021/01/08 11:17:39;;;;;;;6.38;5.20;;;6.50;93.70;;;;;;5097311;28;20036;-49
2021/01/08 11:20:05;;;;;;;9.27;7.43;;;6.30;93.80;;;;;;5097154;28;20036;-53
2021/01/08 11:22:31;;;;;;;8.23;6.22;;;6.50;94.00;;;;;;5028346;28;20044;-50
2021/01/08 11:24:57;;;;;;;8.85;6.40;;;6.50;93.80;;;;;;5096953;28;20110;-55
2021/01/08 11:27:22;;;;;;;8.27;5.82;;;6.30;94.30;;;;;;5096951;28;20035;-56
2021/01/08 11:29:48;;;;;;;6.95;5.85;;;6.20;94.90;;;;;;5096780;28;20044;-56
2021/01/08 11:32:14;;;;;;;12.52;8.80;;;6.20;94.50;;;;;;5097077;28;20110;-56
2021/01/08 11:34:40;;;;;;;7.80;6.25;;;6.40;95.20;;;;;;5011536;28;20040;-55
2021/01/08 11:37:09;;;;;;;13.00;10.05;;;6.70;93.70;;;;;;5096546;28;20118;-59
2021/01/08 11:39:35;;;;;;;10.18;8.73;;;6.80;93.80;;;;;;5096915;28;20399;-51
2021/01/08 11:42:01;;;;;;;11.52;8.80;;;6.90;93.50;;;;;;5096419;28;20028;-53
2021/01/08 11:44:27;;;;;;;13.73;9.80;;;7.10;93.30;;;;;;5096531;28;20032;-52
2021/01/08 11:46:52;;;;;;;12.38;9.32;;;7.30;93.10;;;;;;5061138;28;20036;-52
2021/01/08 11:49:18;;;;;;;12.25;9.38;;;6.90;92.90;;;;;;5096615;28;20063;-53
2021/01/08 11:51:45;;;;;;;11.27;9.98;;;7.30;92.90;;;;;;5096506;28;20024;-53
2021/01/08 11:54:11;;;;;;;8.38;6.80;;;7.30;92.80;;;;;;5096855;28;20055;-53
2021/01/08 11:56:37;;;;;;;10.60;8.00;;;7.40;92.80;;;;;;5096550;28;20070;-53
2021/01/08 11:59:03;;;;;;;10.73;8.38;;;7.40;92.50;;;;;;5056249;28;20128;-56
2021/01/08 12:01:30;;;;;;;10.95;9.45;;;7.40;92.80;;;;;;5073979;28;20048;-48
2021/01/08 12:03:57;;;;;;;10.02;8.63;;;7.30;93.10;;;;;;5076088;28;20029;-50
2021/01/08 12:06:33;;;;;;;14.77;10.65;;;7.40;92.40;;;;;;5075995;28;20043;-47
2021/01/08 12:09:00;;;;;;;21.75;16.17;;;7.50;92.30;;;;;;5024483;28;20044;-51
2021/01/08 12:11:27;;;;;;;23.35;16.58;;;7.40;92.50;;;;;;5075918;28;20542;-45
2021/01/08 12:13:53;;;;;;;13.70;10.45;;;7.30;92.50;;;;;;5114024;28;20134;-49
2021/01/08 12:16:33;;;;;;;45.47;32.45;;;7.00;92.90;;;;;;5116608;28;20036;-51
2021/01/08 12:18:59;;;;;;;22.92;16.73;;;7.10;93.00;;;;;;5081152;28;20048;-44
2021/01/08 12:21:28;;;;;;;14.18;9.65;;;7.20;92.90;;;;;;5013342;28;20492;-49
2021/01/08 12:23:54;;;;;;;12.13;8.40;;;7.20;92.70;;;;;;5013631;28;20046;-49
2021/01/08 12:26:21;;;;;;;6.20;4.13;;;7.10;92.80;;;;;;5013980;28;20486;-53
2021/01/08 12:28:48;;;;;;;5.18;4.28;;;6.40;92.60;;;;;;4967168;28;20049;-53
2021/01/08 12:31:14;;;;;;;8.45;5.97;;;;;;;;;;4974658;28;20051;-51
2021/01/08 12:33:43;;;;;;;10.95;8.02;;;6.10;97.70;;;;;;4958560;28;20608;-57
2021/01/08 12:36:09;;;;;;;12.18;9.00;;;6.30;98.20;;;;;;4974192;28;20090;-55
2021/01/08 12:38:36;;;;;;;9.57;7.22;;;6.60;99.20;;;;;;4974715;28;20427;-50
2021/01/08 12:41:02;;;;;;;11.68;8.65;;;6.80;97.90;;;;;;4974415;28;20127;-51
2021/01/08 12:43:27;;;;;;;17.35;11.00;;;6.80;93.90;;;;;;4973975;28;20497;-54
2021/01/08 12:45:53;;;;;;;8.82;6.30;;;6.50;93.20;;;;;;4974555;28;20109;-53
2021/01/08 12:48:19;;;;;;;13.73;10.52;;;6.10;93.60;;;;;;4939786;28;20158;-54